Time;durP1;ratioP1;P1;durP2;ratioP2;P2;SDS_P1;SDS_P2;PMS_P1;PMS_P2;Temp;Humidity;BMP_temperature;BMP_pressure;BME280_temperature;BME280_humidity;BME280_pressure;Samples;Min_cycle;Max_cycle;Signal;HPM_P1;HPM_P2
2022/11/03 00:00:02;;;;;;;;;;;;;;;15.28;60.75;101181.88;5441102;32;34729;-68
2022/11/03 00:03:10;;;;;;;;;;;;;;;15.42;60.51;101175.94;5440785;32;44615;-80
2022/11/03 00:06:12;;;;;;;;;;;;;;;15.09;62.04;101181.84;5426007;32;35556;-67
2022/11/03 00:09:15;;;;;;;;;;;;;;;15.11;61.74;101179.97;5443117;32;34973;-80
2022/11/03 00:12:16;;;;;;;;;;;;;;;15.61;59.87;101174.12;5436314;32;35354;-80
2022/11/03 00:15:18;;;;;;;;;;;;;;;15.72;58.92;101176.31;5444944;32;34850;-80
2022/11/03 00:18:20;;;;;;;;;;;;;;;15.13;61.04;101186.09;5425771;32;34917;-65
2022/11/03 00:21:22;;;;;;;;;;;;;;;14.49;62.95;101183.63;5426434;32;35741;-66
2022/11/03 00:24:24;;;;;;;;;;;;;;;14.41;63.98;101175.09;5424526;32;34924;-74
2022/11/03 00:27:25;;;;;;;;;;;;;;;14.21;65.06;101175.09;5391174;32;35916;-74
2022/11/03 00:30:27;;;;;;;;;;;;;;;13.82;66.92;101178.44;5446651;32;34847;-79
2022/11/03 00:33:30;;;;;;;;;;;;;;;14.97;62.77;101171.81;5436396;32;34655;-79
2022/11/03 00:36:32;;;;;;;;;;;;;;;14.89;62.54;101172.16;5433199;32;34353;-67
2022/11/03 00:39:34;;;;;;;;;;;;;;;13.97;65.20;101171.66;5432038;32;34607;-67
2022/11/03 00:42:37;;;;;;;;;;;;;;;14.25;65.09;101172.25;5438914;32;35320;-67
2022/11/03 00:45:39;;;;;;;;;;;;;;;14.06;65.86;101161.59;5443190;32;44674;-67
2022/11/03 00:48:41;;;;;;;;;;;;;;;14.27;64.95;101165.13;5434301;32;34690;-79
2022/11/03 00:51:43;;;;;;;;;;;;;;;14.09;65.09;101164.09;5435375;32;35419;-80
2022/11/03 00:54:45;;;;;;;;;;;;;;;13.70;66.74;101169.19;5429068;32;35491;-67
2022/11/03 00:57:52;;;;;;;;;;;;;;;13.85;66.39;101164.22;5423818;32;34930;-69
2022/11/03 01:01:02;;;;;;;;;;;;;;;14.48;63.60;101166.00;5435540;32;34185;-67
2022/11/03 01:07:25;;;;;;;;;;;;;;;14.58;62.50;101162.06;5434393;32;35052;-66
2022/11/03 01:10:27;;;;;;;;;;;;;;;14.71;62.01;101157.09;5428142;32;35126;-80
2022/11/03 01:13:29;;;;;;;;;;;;;;;14.38;62.20;101159.37;5435840;32;34022;-78
2022/11/03 01:16:31;;;;;;;;;;;;;;;14.68;61.26;101156.34;5423832;32;33573;-66
2022/11/03 01:19:32;;;;;;;;;;;;;;;14.32;61.71;101160.50;5440476;32;35299;-65
2022/11/03 01:22:34;;;;;;;;;;;;;;;14.03;62.76;101161.69;5437871;32;34863;-80
2022/11/03 01:25:36;;;;;;;;;;;;;;;14.52;60.67;101167.59;5422068;32;34272;-79
2022/11/03 01:28:39;;;;;;;;;;;;;;;14.73;60.16;101155.22;5436373;32;35738;-79
2022/11/03 01:31:42;;;;;;;;;;;;;;;13.80;61.22;101153.88;5403314;32;44629;-67
2022/11/03 01:34:43;;;;;;;;;;;;;;;14.33;60.60;101156.91;5439410;32;34830;-80
2022/11/03 01:37:45;;;;;;;;;;;;;;;14.62;59.22;101153.06;5415068;32;35445;-79
2022/11/03 01:40:47;;;;;;;;;;;;;;;14.09;60.80;101153.50;5433340;32;35755;-74
2022/11/03 01:43:49;;;;;;;;;;;;;;;13.30;62.83;101148.78;5439577;32;35591;-79
2022/11/03 01:47:10;;;;;;;;;;;;;;;13.42;63.04;101145.66;5412960;32;34765;-73
2022/11/03 01:50:16;;;;;;;;;;;;;;;13.75;60.71;101146.13;5448654;32;45253;-79
2022/11/03 01:53:17;;;;;;;;;;;;;;;13.66;61.61;101145.63;5414872;32;34796;-66
2022/11/03 01:56:19;;;;;;;;;;;;;;;14.02;61.05;101136.19;5438003;32;36073;-66
2022/11/03 01:59:22;;;;;;;;;;;;;;;13.83;61.12;101138.72;5432772;32;34946;-79
2022/11/03 02:02:24;;;;;;;;;;;;;;;13.41;62.63;101146.59;5425917;32;34932;-66
2022/11/03 02:05:26;;;;;;;;;;;;;;;14.02;61.19;101141.47;5429664;32;34342;-66
2022/11/03 02:08:30;;;;;;;;;;;;;;;14.08;60.79;101137.72;5409750;32;35007;-79
2022/11/03 02:14:57;;;;;;;;;;;;;;;14.04;59.77;101144.94;5413471;32;36027;-66
2022/11/03 02:17:59;;;;;;;;;;;;;;;14.73;58.41;101149.94;5422174;32;35211;-79
2022/11/03 02:21:07;;;;;;;;;;;;;;;14.38;59.13;101147.94;5440464;32;35236;-66
2022/11/03 02:24:08;;;;;;;;;;;;;;;14.34;59.17;101144.56;5419552;32;46256;-78
2022/11/03 02:27:10;;;;;;;;;;;;;;;14.12;59.98;101144.63;5416918;32;35403;-66
2022/11/03 02:30:12;;;;;;;;;;;;;;;13.60;62.27;101145.87;5408134;32;35237;-66
2022/11/03 02:33:19;;;;;;;;;;;;;;;13.77;61.83;101151.31;5444486;32;35424;-66
2022/11/03 02:36:21;;;;;;;;;;;;;;;14.28;59.96;101147.47;5423742;32;35605;-66
2022/11/03 02:39:27;;;;;;;;;;;;;;;14.34;59.55;101144.56;5417805;32;35460;-73
2022/11/03 02:42:30;;;;;;;;;;;;;;;14.05;60.35;101140.50;5436810;32;34605;-66
2022/11/03 02:45:32;;;;;;;;;;;;;;;13.76;61.60;101144.31;5420590;32;34589;-66
2022/11/03 02:48:33;;;;;;;;;;;;;;;13.53;62.50;101142.63;5440934;32;35247;-66
2022/11/03 02:51:35;;;;;;;;;;;;;;;14.25;59.77;101137.88;5403848;32;35066;-66
2022/11/03 02:54:38;;;;;;;;;;;;;;;14.82;57.85;101132.81;5427071;32;37433;-66
2022/11/03 02:57:42;;;;;;;;;;;;;;;14.94;56.89;101136.66;5400813;32;45294;-79
2022/11/03 03:00:54;;;;;;;;;;;;;;;14.80;57.15;101134.66;5426814;32;33852;-80
2022/11/03 03:03:57;;;;;;;;;;;;;;;14.74;56.83;101129.63;5422983;32;34710;-67
2022/11/03 03:07:00;;;;;;;;;;;;;;;14.30;58.14;101135.91;5398706;32;34888;-80
2022/11/03 03:10:02;;;;;;;;;;;;;;;14.00;58.97;101142.47;5432997;32;34145;-67
2022/11/03 03:13:04;;;;;;;;;;;;;;;13.71;60.08;101152.44;5430853;32;34128;-66
2022/11/03 03:16:09;;;;;;;;;;;;;;;14.09;59.28;101153.50;5422298;32;34038;-66
2022/11/03 03:19:20;;;;;;;;;;;;;;;13.50;61.54;101161.22;5436981;32;46189;-79
2022/11/03 03:22:41;;;;;;;;;;;;;;;13.41;62.13;101164.22;5412891;32;34822;-80
2022/11/03 03:25:48;;;;;;;;;;;;;;;12.98;64.45;101155.22;5410285;32;45090;-80
2022/11/03 03:28:55;;;;;;;;;;;;;;;12.68;66.50;101158.03;5380120;32;35390;-80
2022/11/03 03:31:59;;;;;;;;;;;;;;;13.62;62.43;101159.88;5432987;32;34088;-80
2022/11/03 03:35:00;;;;;;;;;;;;;;;13.88;61.69;101162.34;5409793;32;34916;-67
2022/11/03 03:38:03;;;;;;;;;;;;;;;13.27;63.16;101156.81;5417622;32;34624;-67
2022/11/03 03:41:06;;;;;;;;;;;;;;;12.76;65.47;101168.34;5423577;32;34240;-67
2022/11/03 03:44:11;;;;;;;;;;;;;;;12.54;66.90;101160.31;5416306;32;45096;-67
2022/11/03 03:47:29;;;;;;;;;;;;;;;12.68;66.52;101157.19;5439185;32;35155;-80
2022/11/03 03:50:32;;;;;;;;;;;;;;;13.61;62.44;101156.38;5422148;32;34832;-67
2022/11/03 03:53:33;;;;;;;;;;;;;;;12.61;65.47;101160.97;5416847;32;35022;-66
2022/11/03 03:56:37;;;;;;;;;;;;;;;12.97;64.83;101156.16;5421698;32;35611;-67
2022/11/03 03:59:39;;;;;;;;;;;;;;;13.41;63.28;101146.59;5426522;32;38438;-79
2022/11/03 04:02:41;;;;;;;;;;;;;;;12.43;66.76;101154.56;5437476;32;34657;-66
2022/11/03 04:05:43;;;;;;;;;;;;;;;12.67;65.51;101155.47;5426491;32;35080;-66
2022/11/03 04:08:45;;;;;;;;;;;;;;;13.05;63.70;101142.66;5437678;32;34737;-65
2022/11/03 04:25:14;;;;;;;;;;;;;;;13.44;61.00;101157.03;5418137;32;45228;-80
2022/11/03 04:28:16;;;;;;;;;;;;;;;12.86;61.92;101159.16;5429648;32;35013;-80
2022/11/03 04:31:18;;;;;;;;;;;;;;;13.10;61.49;101159.19;5416708;32;35285;-67
2022/11/03 04:34:22;;;;;;;;;;;;;;;12.70;63.14;101163.28;5440895;32;34729;-74
2022/11/03 04:37:25;;;;;;;;;;;;;;;12.95;62.64;101161.50;5424374;32;34841;-79
2022/11/03 04:40:27;;;;;;;;;;;;;;;13.35;61.03;101154.75;5439424;32;36703;-73
2022/11/03 04:43:33;;;;;;;;;;;;;;;12.69;63.24;101153.66;5420682;32;35025;-67
2022/11/03 04:46:35;;;;;;;;;;;;;;;11.75;67.04;101153.28;5415064;32;34166;-66
2022/11/03 04:49:37;;;;;;;;;;;;;;;11.69;68.64;101145.56;5445682;32;35303;-65
2022/11/03 04:52:38;;;;;;;;;;;;;;;12.79;64.02;101155.03;5429962;32;45574;-68
2022/11/03 04:55:41;;;;;;;;;;;;;;;13.20;62.10;101156.19;5428458;32;36101;-79
2022/11/03 04:58:43;;;;;;;;;;;;;;;12.23;65.60;101155.22;5428888;32;34225;-79
2022/11/03 05:01:44;;;;;;;;;;;;;;;11.66;68.79;101153.56;5442780;32;34366;-67
2022/11/03 05:04:47;;;;;;;;;;;;;;;12.16;66.43;101154.56;5428681;32;34843;-80
2022/11/03 05:07:55;;;;;;;;;;;;;;;12.05;67.05;101162.00;5429490;32;35261;-66
2022/11/03 05:10:57;;;;;;;;;;;;;;;12.72;64.33;101156.19;5436053;32;35420;-79
2022/11/03 05:14:25;;;;;;;;;;;;;;;13.00;62.27;101151.59;5416860;32;34294;-78
2022/11/03 05:17:27;;;;;;;;;;;;;;;12.64;64.15;101163.50;5436287;32;35689;-66
2022/11/03 05:20:30;;;;;;;;;;;;;;;12.79;63.57;101165.59;5426058;32;35394;-67
2022/11/03 05:23:43;;;;;;;;;;;;;;;11.57;69.29;101167.88;5438062;32;34222;-80
2022/11/03 05:26:45;;;;;;;;;;;;;;;11.55;69.18;101168.81;5417352;32;44567;-80
2022/11/03 05:29:47;;;;;;;;;;;;;;;12.05;67.68;101167.25;5423459;32;34782;-80
2022/11/03 05:32:49;;;;;;;;;;;;;;;12.86;64.26;101166.22;5443658;32;34658;-66
2022/11/03 05:35:50;;;;;;;;;;;;;;;12.30;66.53;101175.22;5423369;32;35321;-66
2022/11/03 05:38:53;;;;;;;;;;;;;;;12.52;65.67;101183.25;5444113;32;36480;-75
2022/11/03 05:41:56;;;;;;;;;;;;;;;11.71;68.46;101201.66;5429964;32;35705;-66
2022/11/03 05:48:50;;;;;;;;;;;;;;;12.74;64.58;101200.03;5512481;27;19982;-96
2022/11/03 05:52:16;;;;;;;;;;;;;;;12.62;64.58;101183.78;5293519;27;35613;-68
2022/11/03 05:55:30;;;;;;;;;;;;;;;12.30;66.31;101209.50;5326101;32;35252;-77
2022/11/03 05:58:40;;;;;;;;;;;;;;;12.60;65.61;101202.28;5293747;32;35384;-67
2022/11/03 06:01:41;;;;;;;;;;;;;;;12.63;65.59;101202.22;5303575;32;44418;-78
2022/11/03 06:04:43;;;;;;;;;;;;;;;12.91;64.23;101201.22;5333204;32;33514;-76
2022/11/03 06:07:45;;;;;;;;;;;;;;;13.31;62.80;101216.50;5314620;32;35410;-68
2022/11/03 06:10:48;;;;;;;;;;;;;;;12.99;64.55;101217.63;5307775;32;34837;-68
2022/11/03 06:13:50;;;;;;;;;;;;;;;13.00;64.05;101225.50;5296038;32;34948;-77
2022/11/03 06:16:52;;;;;;;;;;;;;;;14.60;58.27;101218.41;5299676;32;34940;-77
2022/11/03 06:19:58;;;;;;;;;;;;;;;14.72;57.29;101226.75;5310265;32;36975;-77
2022/11/03 06:23:00;;;;;;;;;;;;;;;14.56;57.50;101221.25;5303416;32;35504;-77
2022/11/03 06:26:02;;;;;;;;;;;;;;;14.28;59.02;101227.63;5314241;32;34338;-66
2022/11/03 06:29:04;;;;;;;;;;;;;;;14.23;59.16;101223.47;5290606;32;35469;-70
2022/11/03 06:32:08;;;;;;;;;;;;;;;14.99;56.54;101216.72;5328992;32;46375;-69
2022/11/03 06:35:10;;;;;;;;;;;;;;;15.14;55.93;101213.41;5310870;32;34318;-66
2022/11/03 06:38:14;;;;;;;;;;;;;;;15.78;53.42;101214.88;5339320;32;35474;-70
2022/11/03 06:41:26;;;;;;;;;;;;;;;15.96;52.61;101212.22;5309630;32;34828;-65
2022/11/03 06:44:29;;;;;;;;;;;;;;;15.44;54.03;101216.44;5296742;32;35653;-67
2022/11/03 06:47:31;;;;;;;;;;;;;;;15.73;52.74;101219.56;5310816;32;35321;-68
2022/11/03 06:50:33;;;;;;;;;;;;;;;15.09;54.60;101226.84;5316802;32;35983;-69
2022/11/03 06:53:35;;;;;;;;;;;;;;;15.12;54.84;101232.00;5313369;32;35821;-73
2022/11/03 06:56:37;;;;;;;;;;;;;;;14.92;55.96;101245.25;5318315;32;44813;-68
2022/11/03 06:59:38;;;;;;;;;;;;;;;14.47;57.91;101241.00;5305348;32;34020;-70
2022/11/03 07:02:48;;;;;;;;;;;;;;;13.40;60.79;101241.72;5316100;32;34708;-71
2022/11/03 07:05:50;;;;;;;;;;;;;;;14.74;57.46;101241.62;5287949;32;34297;-69
2022/11/03 07:08:55;;;;;;;;;;;;;;;13.42;61.91;101242.50;5331548;32;35560;-66
2022/11/03 07:11:58;;;;;;;;;;;;;;;13.63;61.18;101249.63;5316508;32;34565;-73
2022/11/03 07:15:00;;;;;;;;;;;;;;;14.40;59.65;101241.28;5312747;32;34166;-69
2022/11/03 07:18:03;;;;;;;;;;;;;;;14.45;58.84;101253.41;5299117;32;34410;-70
2022/11/03 07:21:14;;;;;;;;;;;;;;;13.77;61.98;101251.72;5301768;32;44990;-70
2022/11/03 07:24:26;;;;;;;;;;;;;;;14.90;58.00;101250.63;5334890;32;34355;-70
2022/11/03 07:27:28;;;;;;;;;;;;;;;13.78;61.76;101237.59;5306405;32;34698;-70
2022/11/03 07:30:34;;;;;;;;;;;;;;;13.75;62.77;101256.22;5313216;32;34325;-73
2022/11/03 07:33:35;;;;;;;;;;;;;;;13.96;62.16;101249.22;5304308;32;43164;-71
2022/11/03 07:36:37;;;;;;;;;;;;;;;14.08;62.05;101252.25;5324648;32;34389;-70
2022/11/03 07:39:39;;;;;;;;;;;;;;;14.14;61.84;101250.28;5308429;32;35319;-69
2022/11/03 07:42:42;;;;;;;;;;;;;;;14.05;62.13;101254.16;5292288;32;35437;-78
2022/11/03 07:45:47;;;;;;;;;;;;;;;14.21;61.29;101254.41;5322130;32;34261;-73
2022/11/03 07:49:00;;;;;;;;;;;;;;;15.06;58.63;101248.16;5312504;32;35550;-79
2022/11/03 07:52:04;;;;;;;;;;;;;;;15.05;58.76;101259.69;5301458;32;34259;-73
2022/11/03 07:55:08;;;;;;;;;;;;;;;14.72;59.45;101258.50;5289317;32;44670;-74
2022/11/03 07:58:17;;;;;;;;;;;;;;;14.82;60.18;101250.09;5303439;32;36146;-67
2022/11/03 08:01:23;;;;;;;;;;;;;;;14.60;60.68;101250.13;5313646;32;36382;-70
2022/11/03 08:04:29;;;;;;;;;;;;;;;14.28;62.35;101247.94;5308275;32;34366;-73
2022/11/03 08:07:31;;;;;;;;;;;;;;;14.10;62.73;101244.25;5326664;32;34492;-70
2022/11/03 08:10:33;;;;;;;;;;;;;;;14.85;61.28;101247.31;5320688;32;34299;-73
2022/11/03 08:13:35;;;;;;;;;;;;;;;14.39;63.13;101245.72;5332218;32;35523;-68
2022/11/03 08:16:37;;;;;;;;;;;;;;;14.25;64.65;101242.78;5303174;32;44703;-72
2022/11/03 08:19:40;;;;;;;;;;;;;;;14.16;64.64;101249.28;5312357;32;33475;-69
2022/11/03 08:22:42;;;;;;;;;;;;;;;14.49;64.16;101233.87;5321281;32;34271;-69
2022/11/03 08:26:04;;;;;;;;;;;;;;;13.89;67.01;101235.41;5315113;32;35427;-78
2022/11/03 08:29:06;;;;;;;;;;;;;;;14.38;65.47;101244.00;5318314;32;46545;-67
2022/11/03 08:32:07;;;;;;;;;;;;;;;13.45;68.38;101237.09;5301784;32;34049;-67
2022/11/03 08:35:09;;;;;;;;;;;;;;;14.18;66.04;101226.31;5309188;32;35402;-64
2022/11/03 08:38:11;;;;;;;;;;;;;;;13.44;69.19;101238.88;5325864;32;34438;-70
2022/11/03 08:41:13;;;;;;;;;;;;;;;13.23;71.01;101231.75;5323986;32;34837;-67
2022/11/03 08:44:15;;;;;;;;;;;;;;;14.30;67.84;101225.81;5320047;32;34201;-69
2022/11/03 08:47:17;;;;;;;;;;;;;;;14.21;67.38;101233.25;5301635;32;33677;-71
2022/11/03 08:50:19;;;;;;;;;;;;;;;14.28;66.74;101226.78;5324413;32;35378;-70
2022/11/03 08:53:21;;;;;;;;;;;;;;;14.77;65.94;101219.47;5306079;32;34326;-73
2022/11/03 08:56:23;;;;;;;;;;;;;;;13.78;69.66;101227.03;5316784;32;34300;-67
2022/11/03 08:59:25;;;;;;;;;;;;;;;15.32;64.25;101224.94;5326306;32;34083;-71
2022/11/03 09:02:27;;;;;;;;;;;;;;;13.72;70.79;101227.28;5317741;32;35515;-70
2022/11/03 09:05:30;;;;;;;;;;;;;;;14.08;69.74;101224.94;5328723;32;35918;-69
2022/11/03 09:08:31;;;;;;;;;;;;;;;14.61;66.14;101225.41;5305476;32;35812;-72
2022/11/03 09:11:53;;;;;;;;;;;;;;;13.69;71.19;101216.81;5325852;32;34687;-73
2022/11/03 09:14:55;;;;;;;;;;;;;;;14.99;66.09;101207.00;5280399;32;797610;-82
2022/11/03 09:17:57;;;;;;;;;;;;;;;13.62;70.94;101207.41;5277252;32;34075;-78
2022/11/03 09:21:02;;;;;;;;;;;;;;;13.89;71.23;101208.97;5324256;32;36259;-68
2022/11/03 09:24:04;;;;;;;;;;;;;;;14.26;69.01;101207.50;5317334;32;34219;-77
2022/11/03 09:27:06;;;;;;;;;;;;;;;14.22;69.86;101214.66;5323033;32;44407;-71
2022/11/03 09:30:08;;;;;;;;;;;;;;;14.75;67.74;101223.94;5317225;32;34814;-72
2022/11/03 09:33:15;;;;;;;;;;;;;;;15.08;65.26;101203.97;5319683;32;34156;-65
2022/11/03 09:36:17;;;;;;;;;;;;;;;15.21;65.30;101201.62;5314469;32;35535;-69
2022/11/03 09:39:19;;;;;;;;;;;;;;;14.99;65.81;101201.72;5308987;32;34963;-82
2022/11/03 09:42:21;;;;;;;;;;;;;;;14.27;68.09;101209.22;5317845;32;35673;-70
2022/11/03 09:45:23;;;;;;;;;;;;;;;14.67;67.22;101199.63;5305989;32;36057;-70
2022/11/03 09:48:25;;;;;;;;;;;;;;;14.51;67.96;101197.62;5318568;32;32855;-73
2022/11/03 09:51:27;;;;;;;;;;;;;;;15.05;65.56;101192.63;5299460;32;34334;-71
2022/11/03 09:54:29;;;;;;;;;;;;;;;14.70;67.63;101192.41;5310652;32;37128;-71
2022/11/03 09:57:31;;;;;;;;;;;;;;;15.27;64.89;101179.31;5322068;32;35911;-71
2022/11/03 10:00:33;;;;;;;;;;;;;;;14.77;66.30;101177.13;5315256;32;34782;-71
2022/11/03 10:03:35;;;;;;;;;;;;;;;14.20;69.27;101186.59;5316039;32;35772;-71
2022/11/03 10:06:38;;;;;;;;;;;;;;;14.83;67.22;101179.50;5306543;32;34384;-69
2022/11/03 10:09:41;;;;;;;;;;;;;;;14.48;68.69;101178.38;5321957;32;34179;-65
2022/11/03 10:12:43;;;;;;;;;;;;;;;14.99;65.87;101162.00;5297946;32;34452;-69
2022/11/03 10:15:45;;;;;;;;;;;;;;;13.83;71.42;101175.72;5320458;32;35738;-68
2022/11/03 10:18:47;;;;;;;;;;;;;;;14.54;67.91;101168.41;5324177;32;35565;-70
2022/11/03 10:21:49;;;;;;;;;;;;;;;13.95;70.91;101166.44;5311101;32;34452;-68
2022/11/03 10:25:10;;;;;;;;;;;;;;;14.12;69.56;101155.19;5330824;32;34199;-70
2022/11/03 10:28:12;;;;;;;;;;;;;;;14.80;66.51;101139.94;5312707;32;46317;-72
2022/11/03 10:31:17;;;;;;;;;;;;;;;13.80;70.02;101153.88;5319256;32;34474;-70
2022/11/03 10:34:36;;;;;;;;;;;;;;;13.84;71.72;101136.94;5307483;32;35490;-66
2022/11/03 10:37:38;;;;;;;;;;;;;;;14.27;69.25;101135.16;5304768;32;44551;-73
2022/11/03 10:40:40;;;;;;;;;;;;;;;13.86;70.80;101129.84;5331012;32;36911;-71
2022/11/03 10:43:59;;;;;;;;;;;;;;;14.19;69.77;101121.41;5314845;32;34147;-72
2022/11/03 10:47:02;;;;;;;;;;;;;;;14.13;69.51;101114.59;5330580;32;34276;-72
2022/11/03 10:50:23;;;;;;;;;;;;;;;14.20;69.32;101108.13;5304427;32;34024;-68
2022/11/03 10:53:25;;;;;;;;;;;;;;;14.85;65.65;101107.03;5296395;32;36239;-70
2022/11/03 10:56:34;;;;;;;;;;;;;;;14.78;67.11;101097.66;5334137;32;35458;-72
2022/11/03 10:59:37;;;;;;;;;;;;;;;14.35;69.19;101088.09;5315157;32;43249;-67
2022/11/03 11:02:40;;;;;;;;;;;;;;;14.87;67.07;101097.25;5312005;32;34104;-70
2022/11/03 11:05:43;;;;;;;;;;;;;;;13.66;71.80;101095.44;5323753;32;35525;-74
2022/11/03 11:08:45;;;;;;;;;;;;;;;14.66;68.17;101085.00;5303849;32;34346;-72
2022/11/03 11:12:03;;;;;;;;;;;;;;;15.20;65.59;101077.22;5307926;32;33987;-70
2022/11/03 11:15:24;;;;;;;;;;;;;;;15.14;65.80;101073.09;5299947;32;38529;-68
2022/11/03 11:18:26;;;;;;;;;;;;;;;14.60;68.24;101062.31;5312542;32;34651;-70
2022/11/03 11:21:28;;;;;;;;;;;;;;;14.71;67.76;101051.25;5303634;32;33931;-71
2022/11/03 11:24:44;;;;;;;;;;;;;;;14.81;68.04;101049.03;5318069;32;46712;-74
2022/11/03 11:27:46;;;;;;;;;;;;;;;15.03;67.14;101051.56;5310612;32;35476;-71
2022/11/03 11:30:51;;;;;;;;;;;;;;;14.89;67.65;101045.12;5301844;32;34461;-68
2022/11/03 11:34:09;;;;;;;;;;;;;;;13.98;71.09;101054.47;5311890;32;35501;-72
2022/11/03 11:37:10;;;;;;;;;;;;;;;15.35;65.49;101037.63;5308266;32;44663;-74
2022/11/03 11:40:18;;;;;;;;;;;;;;;14.88;67.36;101027.53;5326111;32;34344;-76
2022/11/03 11:43:26;;;;;;;;;;;;;;;14.48;69.34;101019.69;5308265;32;34289;-80
2022/11/03 11:46:31;;;;;;;;;;;;;;;14.71;67.83;101010.72;5289918;32;34876;-74
2022/11/03 11:49:33;;;;;;;;;;;;;;;14.80;67.39;101008.47;5335433;32;35834;-69
2022/11/03 11:52:45;;;;;;;;;;;;;;;14.88;67.13;101011.66;5311519;32;44809;-70
2022/11/03 11:55:57;;;;;;;;;;;;;;;14.77;67.36;101002.50;5325105;32;34461;-69
2022/11/03 11:58:59;;;;;;;;;;;;;;;15.36;65.64;101001.41;5323396;32;34204;-71
2022/11/03 12:02:02;;;;;;;;;;;;;;;15.64;64.34;100996.47;5319653;32;35147;-71
2022/11/03 12:05:06;;;;;;;;;;;;;;;14.45;68.87;100996.00;5322660;32;34368;-71
2022/11/03 12:08:18;;;;;;;;;;;;;;;15.27;65.69;100975.38;5314456;32;46776;-70
2022/11/03 12:11:38;;;;;;;;;;;;;;;15.78;63.71;100981.66;5330835;32;34033;-70
2022/11/03 12:14:47;;;;;;;;;;;;;;;15.52;64.20;100975.00;5313197;32;35679;-69
2022/11/03 12:17:49;;;;;;;;;;;;;;;14.98;66.35;100979.44;5307836;32;34434;-68
2022/11/03 12:20:51;;;;;;;;;;;;;;;14.25;69.55;100973.09;5323718;32;34285;-69
2022/11/03 12:23:53;;;;;;;;;;;;;;;15.36;65.69;100964.31;5307737;32;34690;-71
2022/11/03 12:26:55;;;;;;;;;;;;;;;15.53;64.42;100961.69;5320199;32;35553;-68
2022/11/03 12:30:01;;;;;;;;;;;;;;;15.50;64.95;100955.69;5310335;32;35708;-65
2022/11/03 12:33:03;;;;;;;;;;;;;;;15.10;67.05;100955.03;5314034;32;34323;-67
2022/11/03 12:36:05;;;;;;;;;;;;;;;15.55;65.02;100938.63;5291872;32;43391;-72
2022/11/03 12:39:07;;;;;;;;;;;;;;;14.58;68.49;100939.00;5317797;32;34195;-72
2022/11/03 12:42:09;;;;;;;;;;;;;;;14.72;69.05;100933.91;5313810;32;34195;-72
2022/11/03 12:45:12;;;;;;;;;;;;;;;15.58;64.80;100937.59;5316476;32;35896;-72
2022/11/03 12:48:14;;;;;;;;;;;;;;;15.73;63.92;100934.22;5325029;32;33552;-69
2022/11/03 12:51:16;;;;;;;;;;;;;;;15.15;64.94;100927.38;5313782;32;34441;-72
2022/11/03 12:54:18;;;;;;;;;;;;;;;15.35;65.40;100928.19;5325562;32;34322;-67
2022/11/03 12:57:20;;;;;;;;;;;;;;;14.77;68.24;100929.25;5298415;32;36482;-73
2022/11/03 13:00:23;;;;;;;;;;;;;;;14.96;67.80;100925.72;5311965;32;35424;-69
2022/11/03 13:03:25;;;;;;;;;;;;;;;15.58;64.87;100929.66;5320709;32;34332;-72
2022/11/03 13:06:27;;;;;;;;;;;;;;;15.27;65.93;100922.44;5301380;32;34348;-71
2022/11/03 13:09:29;;;;;;;;;;;;;;;15.48;65.35;100920.47;5323478;32;34257;-76
2022/11/03 13:12:31;;;;;;;;;;;;;;;14.75;67.37;100923.19;5313499;32;34189;-72
2022/11/03 13:15:33;;;;;;;;;;;;;;;14.51;69.58;100921.69;5324446;32;34546;-72
2022/11/03 13:18:35;;;;;;;;;;;;;;;14.19;70.61;100926.66;5302514;32;34060;-71
2022/11/03 13:21:36;;;;;;;;;;;;;;;15.15;66.45;100922.09;5306029;32;44575;-70
2022/11/03 13:24:38;;;;;;;;;;;;;;;14.82;66.88;100919.31;5307435;32;34615;-68
2022/11/03 13:27:40;;;;;;;;;;;;;;;14.66;66.67;100925.41;5303152;32;35988;-69
2022/11/03 13:30:42;;;;;;;;;;;;;;;13.70;71.58;100918.25;5307483;32;34178;-70
2022/11/03 13:33:44;;;;;;;;;;;;;;;14.98;66.58;100914.13;5310392;32;34559;-70
2022/11/03 13:36:46;;;;;;;;;;;;;;;14.81;66.28;100916.72;5324191;32;34369;-70
2022/11/03 13:39:48;;;;;;;;;;;;;;;14.03;69.14;100902.69;5317459;32;35090;-66
2022/11/03 13:42:50;;;;;;;;;;;;;;;14.32;69.02;100903.16;5314604;32;34323;-70
2022/11/03 13:45:52;;;;;;;;;;;;;;;14.67;67.40;100900.66;5324113;32;35044;-73
2022/11/03 13:48:54;;;;;;;;;;;;;;;14.68;67.16;100895.28;5320857;32;35548;-72
2022/11/03 13:52:15;;;;;;;;;;;;;;;14.73;66.94;100903.88;5332762;32;34611;-70
2022/11/03 13:55:17;;;;;;;;;;;;;;;14.76;66.58;100902.88;5321100;32;35060;-71
2022/11/03 13:58:39;;;;;;;;;;;;;;;14.24;68.63;100902.66;5313513;32;45034;-72
2022/11/03 14:02:01;;;;;;;;;;;;;;;15.08;65.39;100902.16;5316614;32;35240;-67
2022/11/03 14:05:23;;;;;;;;;;;;;;;15.13;65.14;100900.16;5312196;32;36604;-67
2022/11/03 14:08:25;;;;;;;;;;;;;;;14.70;66.60;100888.16;5330959;32;34343;-69
2022/11/03 14:14:47;;;;;;;;;;;;;;;14.55;67.41;100887.06;5319699;32;35603;-72
2022/11/03 14:17:49;;;;;;;;;;;;;;;13.72;70.37;100897.06;5301720;32;34302;-73
2022/11/03 14:20:51;;;;;;;;;;;;;;;14.43;67.26;100885.00;5312204;32;34542;-74
2022/11/03 14:23:53;;;;;;;;;;;;;;;14.51;66.69;100874.09;5317077;32;35687;-69
2022/11/03 14:26:55;;;;;;;;;;;;;;;14.25;68.12;100883.22;5310054;32;35680;-71
2022/11/03 14:29:57;;;;;;;;;;;;;;;14.39;67.58;100878.13;5320639;32;35493;-74
2022/11/03 14:32:59;;;;;;;;;;;;;;;14.52;67.60;100873.16;5319459;32;34443;-78
2022/11/03 14:36:01;;;;;;;;;;;;;;;14.83;65.69;100875.19;5324503;32;34227;-75
2022/11/03 14:39:03;;;;;;;;;;;;;;;14.58;66.08;100867.56;5331056;32;35885;-70
2022/11/03 14:42:06;;;;;;;;;;;;;;;14.91;64.89;100873.00;5312260;32;34401;-70
2022/11/03 14:45:09;;;;;;;;;;;;;;;14.66;65.67;100870.69;5297096;32;43899;-67
2022/11/03 14:48:11;;;;;;;;;;;;;;;14.85;64.96;100871.50;5312399;32;35416;-71
2022/11/03 14:51:12;;;;;;;;;;;;;;;14.26;67.27;100862.00;5334620;32;35240;-69
2022/11/03 14:54:14;;;;;;;;;;;;;;;14.56;66.70;100869.44;5317522;32;35462;-73
2022/11/03 14:57:16;;;;;;;;;;;;;;;14.60;66.48;100863.06;5296258;32;34305;-72
2022/11/03 15:00:19;;;;;;;;;;;;;;;14.48;67.25;100851.28;5328168;32;34325;-77
2022/11/03 15:03:21;;;;;;;;;;;;;;;14.22;68.10;100847.19;5304238;32;34297;-77
2022/11/03 15:06:23;;;;;;;;;;;;;;;13.97;68.11;100852.75;5322036;32;34546;-79
2022/11/03 15:09:24;;;;;;;;;;;;;;;14.00;68.99;100849.97;5284996;32;34426;-78
2022/11/03 15:12:26;;;;;;;;;;;;;;;14.13;68.37;100844.13;5314218;32;35265;-78
2022/11/03 15:15:28;;;;;;;;;;;;;;;13.60;70.22;100858.00;5288072;32;34191;-67
2022/11/03 15:18:30;;;;;;;;;;;;;;;13.51;69.94;100854.81;5296243;32;36069;-67
2022/11/03 15:21:32;;;;;;;;;;;;;;;13.51;69.24;100857.44;5302859;32;34422;-68
2022/11/03 15:24:34;;;;;;;;;;;;;;;13.43;68.89;100854.28;5306380;32;35699;-68
2022/11/03 15:27:56;;;;;;;;;;;;;;;13.19;69.45;100850.03;5320521;32;34843;-78
2022/11/03 15:30:58;;;;;;;;;;;;;;;12.93;70.30;100859.03;5312598;32;35282;-68
2022/11/03 15:34:00;;;;;;;;;;;;;;;12.86;71.33;100853.16;5317002;32;34953;-68
2022/11/03 15:37:09;;;;;;;;;;;;;;;12.42;73.23;100845.25;5327051;32;44699;-68
2022/11/03 15:40:12;;;;;;;;;;;;;;;12.58;73.52;100847.28;5313312;32;34391;-68
2022/11/03 15:43:14;;;;;;;;;;;;;;;12.89;72.04;100844.28;5308758;32;35397;-67
2022/11/03 15:46:16;;;;;;;;;;;;;;;13.25;69.70;100834.81;5308987;32;34667;-77
2022/11/03 15:49:18;;;;;;;;;;;;;;;12.94;70.33;100843.13;5329192;32;34767;-78
2022/11/03 15:52:20;;;;;;;;;;;;;;;12.96;70.94;100841.31;5302759;32;35833;-77
2022/11/03 15:55:22;;;;;;;;;;;;;;;12.73;70.91;100862.50;5301459;32;34674;-69
2022/11/03 15:58:24;;;;;;;;;;;;;;;12.45;72.16;100860.97;5324175;32;34694;-78
2022/11/03 16:01:26;;;;;;;;;;;;;;;12.34;72.16;100857.87;5299099;32;34201;-77
2022/11/03 16:04:28;;;;;;;;;;;;;;;12.62;71.38;100851.50;5309436;32;34771;-68
2022/11/03 16:07:29;;;;;;;;;;;;;;;12.51;71.70;100840.56;5291336;32;36630;-76
2022/11/03 16:10:31;;;;;;;;;;;;;;;12.65;71.88;100836.44;5316941;32;34286;-78